Flight Track Log - Related Links

Times and Time Zones

All times are in EDT time to prevent confusion due to time zone crossing. See the GJS3710 flight status page for this flight to view local times or setup timezone preferences in your user account.

Time Position Orientation Groundspeed Altitude Reporting Facility
EDT Latitude Longitude Course Direction KTS MPH feet Rate Location/Type
Thu 09:17:04 PM 42.0333 -87.8500 86° East 219 252 3,300  Level Chicago TRACON
Thu 09:18:04 PM 42.0667 -87.7667 62° Northeast 275 316 5,600 2,089 Climbing Chicago TRACON
Thu 09:19:00 PM 42.1659 -87.3523 66° East  Level FlightAware Approximate
Thu 09:19:42 PM 42.0911 -87.6050 78° East 298 343 8,800  Level Chicago Center
Thu 09:20:00 PM 42.2133 -87.2102 66° East  Level FlightAware Approximate
Thu 09:20:44 PM 42.1006 -87.4908 84° East 306 352 11,500  Level Chicago Center
Thu 09:21:00 PM 42.2607 -87.0679 66° East  Level FlightAware Approximate
Thu 09:21:46 PM 42.1128 -87.3681 82° East 326 375 13,100  Level Chicago Center
Thu 09:22:00 PM 42.2706 -86.9201 86° East  Level FlightAware Approximate
Thu 09:22:48 PM 42.1267 -87.2036 83° East 363 418 14,900  Level Chicago Center
Thu 09:23:50 PM 42.1358 -87.0639 85° East 375 432 16,400 1,452 Climbing Chicago Center
Thu 09:24:52 PM 42.1458 -86.9186 85° East 387 445 17,900 1,500 Climbing Chicago Center
Thu 09:25:54 PM 42.1558 -86.7694 85° East 399 459 19,500 1,548 Climbing Chicago Center
Thu 09:26:56 PM 42.1667 -86.6050 85° East 415 478 21,100 1,258 Climbing Chicago Center
Thu 09:27:58 PM 42.1769 -86.4419 85° East 433 498 22,100 976 Climbing Chicago Center
Thu 09:28:59 PM 42.1875 -86.2717 85° East 451 519 23,100 976 Climbing Chicago Center
Thu 09:30:01 PM 42.1986 -86.0964 85° East 465 535 24,100 1,016 Climbing Chicago Center
Thu 09:31:03 PM 42.2106 -85.8972 85° East 475 547 25,200 1,016 Climbing Chicago Center
Thu 09:32:05 PM 42.2217 -85.7178 85° East 481 554 26,200 968 Climbing Chicago Center
Thu 09:33:07 PM 42.2317 -85.5347 86° East 488 562 27,200 976 Climbing Chicago Center
Thu 09:34:08 PM 42.2425 -85.3508 85° East 493 567 28,200 1,073 Climbing Chicago Center
Thu 09:35:10 PM 42.2556 -85.1342 85° East 495 570 29,400 1,082 Climbing Cleveland Center
Thu 09:36:10 PM 42.2625 -84.9494 87° East 495 570 30,400 1,000 Climbing Cleveland Center
Thu 09:37:10 PM 42.2778 -84.7650 84° East 496 571 31,400 950 Climbing Cleveland Center
Thu 09:38:10 PM 42.2797 -84.5967 89° East 496 571 32,300 1,050 Climbing Cleveland Center
Thu 09:39:10 PM 42.2942 -84.4122 84° East 491 565 33,500 1,300 Climbing Cleveland Center
Thu 09:40:10 PM 42.3189 -84.2314 79° East 491 565 34,900 1,250 Climbing Cleveland Center
Thu 09:41:10 PM 42.3450 -84.0586 78° East 491 565 36,000 950 Climbing Cleveland Center
Thu 09:42:10 PM 42.3692 -83.8800 80° East 481 554 36,800 800 Climbing Cleveland Center
Thu 09:43:10 PM 42.3928 -83.7069 79° East 476 548 37,600 800 Climbing Cleveland Center
Thu 09:44:10 PM 42.4078 -83.5331 83° East 471 542 38,400 700 Climbing Cleveland Center
Thu 09:45:10 PM 42.4183 -83.3564 85° East 466 536 39,000 300 Climbing Cleveland Center
Thu 09:46:10 PM 42.4231 -83.1625 88° East 466 536 39,000  Level Cleveland Center
Thu 09:47:10 PM 42.4289 -82.9856 87° East 461 531 39,000  Level Cleveland Center
Thu 09:48:10 PM 42.4344 -82.8114 87° East 461 531 39,000  Level Cleveland Center
Thu 09:49:10 PM 42.4378 -82.6342 88° East 461 531 39,000  Level Cleveland Center
Thu 09:50:10 PM 42.4450 -82.4600 87° East 461 531 39,000 -450 Level Cleveland Center
Thu 09:51:10 PM 42.4497 -82.2800 88° East 461 531 38,100 -950 Descending Cleveland Center
Thu 09:52:10 PM 42.4542 -82.1056 88° East 461 531 37,100 -550 Descending Cleveland Center
Thu 09:53:10 PM 42.4586 -81.9283 88° East 466 536 37,000 -50 Descending Cleveland Center
Thu 09:54:10 PM 42.4647 -81.7428 87° East 471 542 37,000  Level Cleveland Center
Thu 09:55:10 PM 42.4664 -81.5597 89° East 482 555 37,000  Level Cleveland Center
Thu 09:56:10 PM 42.4700 -81.3714 88° East 488 562 37,000  Level Cleveland Center
Thu 09:57:10 PM 42.4733 -81.1828 89° East 493 567 37,000  Level Cleveland Center
Thu 09:58:10 PM 42.4781 -81.0167 88° East 493 567 37,000  Level Cleveland Center
Thu 09:59:10 PM 42.4808 -80.8308 89° East 493 567 37,000  Level Cleveland Center
Thu 10:00:10 PM 42.4831 -80.6481 89° East 488 562 37,000  Level Cleveland Center
Thu 10:01:10 PM 42.4853 -80.4592 89° East 488 562 37,000  Level Cleveland Center
Thu 10:02:10 PM 42.4869 -80.2792 89° East 488 562 37,000  Level Cleveland Center
Thu 10:03:10 PM 42.4883 -80.0819 89° East 483 556 37,000  Level Cleveland Center
Thu 10:04:10 PM 42.4917 -79.9158 88° East 483 556 37,000  Level Cleveland Center
Thu 10:05:10 PM 42.4906 -79.7328 90° East 478 550 37,000  Level Cleveland Center
Thu 10:06:10 PM 42.4931 -79.5525 89° East 478 550 37,000  Level Cleveland Center
Thu 10:07:10 PM 42.4914 -79.3667 91° East 478 550 37,000  Level Cleveland Center
Thu 10:08:10 PM 42.4975 -79.1864 87° East 478 550 37,000  Level Cleveland Center
Thu 10:09:10 PM 42.5119 -79.0031 84° East 478 550 37,000 -100 Level Cleveland Center
Thu 10:10:10 PM 42.5239 -78.8197 85° East 478 550 36,800 -650 Descending Cleveland Center
Thu 10:11:10 PM 42.5356 -78.6417 85° East 483 556 35,700 -1,050 Descending Cleveland Center
Thu 10:12:10 PM 42.5450 -78.4667 86° East 478 550 34,700 -1,000 Descending Cleveland Center
Thu 10:13:10 PM 42.5583 -78.2858 84° East 473 544 33,700 -850 Descending Cleveland Center
Thu 10:14:10 PM 42.5692 -78.1050 85° East 478 550 33,000 -350 Descending Cleveland Center
Thu 10:15:10 PM 42.5797 -77.9242 85° East 478 550 33,000 -500 Level Cleveland Center
Thu 10:16:10 PM 42.5881 -77.7489 86° East 478 550 32,000 -1,006 Descending Cleveland Center
Thu 10:18:03 PM 42.6083 -77.4117 85° East 470 541 30,100 -1,006 Descending Boston Center
Thu 10:19:03 PM 42.6181 -77.2375 86° East 470 541 29,100 -550 Descending Boston Center
Thu 10:20:03 PM 42.6272 -77.0686 86° East 470 541 29,000 -50 Descending Boston Center
Thu 10:21:03 PM 42.6361 -76.8972 86° East 456 525 29,000  Level Boston Center
Thu 10:22:03 PM 42.6447 -76.7228 86° East 456 525 29,000  Level Boston Center
Thu 10:23:03 PM 42.6533 -76.5508 86° East 461 531 29,000  Level Boston Center
Thu 10:24:03 PM 42.6614 -76.3792 86° East 461 531 29,000  Level Boston Center
Thu 10:25:15 PM 42.6719 -76.1933 86° East 455 524 29,000 -91 Level Boston Center
Thu 10:26:15 PM 42.6783 -75.9903 87° East 450 518 28,800 -1,150 Descending Boston Center
Thu 10:27:15 PM 42.6856 -75.8214 87° East 443 510 26,700 -2,150 Descending Boston Center
Thu 10:28:15 PM 42.6925 -75.6578 87° East 438 504 24,500 -2,000 Descending Boston Center
Thu 10:29:27 PM 42.6989 -75.5000 87° East 428 493 22,300 -2,227 Descending Boston Center
Thu 10:30:27 PM 42.7036 -75.3192 88° East 409 471 19,600 -2,100 Descending Boston Center
Thu 10:31:27 PM 42.7114 -75.1783 86° East 392 451 18,100 -1,500 Descending Boston Center
Thu 10:32:27 PM 42.7147 -75.0372 88° East 373 429 16,600 -1,550 Descending Boston Center
Thu 10:33:27 PM 42.7072 -74.9011 94° East 378 435 15,000 -1,538 Descending Boston Center
Thu 10:33:45 PM 42.6978 -74.8611 108° East 379 436 14,600 -1,400 Descending Boston Center
Thu 10:34:27 PM 42.6831 -74.7589 101° East 368 423 13,600 -1,574 Descending Boston Center
Thu 10:34:46 PM 42.6800 -74.7108 95° East 370 426 13,000 -1,600 Descending Boston Center
Thu 10:35:27 PM 42.6650 -74.6172 102° East 374 430 12,000 -1,377 Descending Boston Center
Thu 10:35:47 PM 42.6597 -74.5744 100° East 369 425 11,600 -1,100 Descending Boston Center
Thu 10:36:27 PM 42.6467 -74.4922 102° East 364 419 10,900 -1,000 Descending Boston Center
Thu 10:36:47 PM 42.6411 -74.4497 100° East 333 383 10,600 -1,000 Descending Boston Center
Thu 10:37:27 PM 42.6319 -74.3761 100° East 320 368 9,900 -1,180 Descending Boston Center
Thu 10:37:48 PM 42.6306 -74.3392 93° East 284 327 9,400 -1,500 Descending Boston Center
Thu 10:38:27 PM 42.6192 -74.2683 102° East 297 342 8,400 -1,556 Descending Boston Center
Thu 10:38:42 PM 42.6153 -74.2428 102° East 282 325 8,000 -1,600 Descending Boston Center
Thu 10:39:27 PM 42.6042 -74.1636 101° East 279 321 6,800 -1,657 Descending Boston Center
Thu 10:40:27 PM 42.5911 -74.0617 100° East 279 321 5,100 -1,650 Descending Boston Center
Thu 10:41:27 PM 42.5797 -73.9628 99° East 273 314 3,500 -800 Descending Boston Center
Thu 10:42:27 PM 42.5725 -73.8781 97° East 246 283 3,500 -350 Level Boston Center
Thu 10:43:27 PM 42.5881 -73.8106 73° East 194 223 2,800 -550 Descending Boston Center
Thu 10:44:27 PM 42.6339 -73.8031 North 142 163 2,400 -550 Descending Boston Center
Thu 10:45:27 PM 42.6672 -73.8039 359° North 142 163 1,700 -806 Descending Boston Center
Thu 10:46:41 PM 42.7256 -73.8053 359° North 141 162 600 -892 Descending Boston Center

Login

Don't have an account? Register now (free) for customized features, flight alerts, and more!